sensor_id;sensor_type;location;lat;lon;timestamp;temperature;humidity
64499;SHT31;51087;55.718;21.122;2022-07-29T00:01:30;13.91;80.54
64499;SHT31;51087;55.718;21.122;2022-07-29T00:03:56;13.92;80.81
64499;SHT31;51087;55.718;21.122;2022-07-29T00:06:21;13.79;80.65
64499;SHT31;51087;55.718;21.122;2022-07-29T00:08:47;13.77;80.95
64499;SHT31;51087;55.718;21.122;2022-07-29T00:11:12;13.70;80.87
64499;SHT31;51087;55.718;21.122;2022-07-29T00:13:38;13.68;81.13
64499;SHT31;51087;55.718;21.122;2022-07-29T00:16:03;13.67;81.43
64499;SHT31;51087;55.718;21.122;2022-07-29T00:18:29;13.60;81.21
64499;SHT31;51087;55.718;21.122;2022-07-29T00:20:54;13.58;81.49
64499;SHT31;51087;55.718;21.122;2022-07-29T00:23:20;13.42;81.85
64499;SHT31;51087;55.718;21.122;2022-07-29T00:25:45;13.33;82.42
64499;SHT31;51087;55.718;21.122;2022-07-29T00:28:10;13.32;82.68
64499;SHT31;51087;55.718;21.122;2022-07-29T00:30:36;13.23;82.86
64499;SHT31;51087;55.718;21.122;2022-07-29T00:33:01;13.16;83.14
64499;SHT31;51087;55.718;21.122;2022-07-29T00:35:27;13.12;83.23
64499;SHT31;51087;55.718;21.122;2022-07-29T00:38:14;13.13;83.44
64499;SHT31;51087;55.718;21.122;2022-07-29T00:40:40;13.03;83.64
64499;SHT31;51087;55.718;21.122;2022-07-29T00:43:07;13.06;83.62
64499;SHT31;51087;55.718;21.122;2022-07-29T00:45:32;13.08;83.67
64499;SHT31;51087;55.718;21.122;2022-07-29T00:47:58;13.01;83.75
64499;SHT31;51087;55.718;21.122;2022-07-29T00:50:24;12.99;83.79
64499;SHT31;51087;55.718;21.122;2022-07-29T00:52:50;12.93;83.78
64499;SHT31;51087;55.718;21.122;2022-07-29T00:55:16;12.91;83.99
64499;SHT31;51087;55.718;21.122;2022-07-29T00:57:43;12.87;83.99
64499;SHT31;51087;55.718;21.122;2022-07-29T01:00:12;12.85;84.43
64499;SHT31;51087;55.718;21.122;2022-07-29T01:02:38;12.80;84.58
64499;SHT31;51087;55.718;21.122;2022-07-29T01:05:04;12.77;84.91
64499;SHT31;51087;55.718;21.122;2022-07-29T01:07:32;12.84;84.74
64499;SHT31;51087;55.718;21.122;2022-07-29T01:09:59;12.99;84.16
64499;SHT31;51087;55.718;21.122;2022-07-29T01:12:29;13.01;83.94
64499;SHT31;51087;55.718;21.122;2022-07-29T01:14:59;13.05;83.84
64499;SHT31;51087;55.718;21.122;2022-07-29T01:20:10;12.84;84.01
64499;SHT31;51087;55.718;21.122;2022-07-29T01:28:01;12.80;84.54
64499;SHT31;51087;55.718;21.122;2022-07-29T01:30:32;12.82;84.60
64499;SHT31;51087;55.718;21.122;2022-07-29T01:33:03;12.80;84.56
64499;SHT31;51087;55.718;21.122;2022-07-29T01:35:40;12.75;84.70
64499;SHT31;51087;55.718;21.122;2022-07-29T01:40:46;12.58;84.93
64499;SHT31;51087;55.718;21.122;2022-07-29T01:43:20;12.60;85.11
64499;SHT31;51087;55.718;21.122;2022-07-29T01:46:04;12.58;85.17
64499;SHT31;51087;55.718;21.122;2022-07-29T01:51:27;12.57;85.08
64499;SHT31;51087;55.718;21.122;2022-07-29T01:54:06;12.44;85.16
64499;SHT31;51087;55.718;21.122;2022-07-29T01:56:34;12.43;85.73
64499;SHT31;51087;55.718;21.122;2022-07-29T01:59:02;12.43;85.79
64499;SHT31;51087;55.718;21.122;2022-07-29T02:01:31;12.38;85.89
64499;SHT31;51087;55.718;21.122;2022-07-29T02:03:59;12.38;85.94
64499;SHT31;51087;55.718;21.122;2022-07-29T02:06:27;12.45;85.87
64499;SHT31;51087;55.718;21.122;2022-07-29T02:08:55;12.53;85.84
64499;SHT31;51087;55.718;21.122;2022-07-29T02:11:22;12.60;85.35
64499;SHT31;51087;55.718;21.122;2022-07-29T02:13:48;12.48;85.67
64499;SHT31;51087;55.718;21.122;2022-07-29T02:16:14;12.38;85.95
64499;SHT31;51087;55.718;21.122;2022-07-29T02:18:45;12.25;86.64
64499;SHT31;51087;55.718;21.122;2022-07-29T02:21:13;12.17;86.80
64499;SHT31;51087;55.718;21.122;2022-07-29T02:23:42;12.15;87.24
64499;SHT31;51087;55.718;21.122;2022-07-29T02:26:09;12.15;87.23
64499;SHT31;51087;55.718;21.122;2022-07-29T02:28:35;12.16;87.18
64499;SHT31;51087;55.718;21.122;2022-07-29T02:31:02;12.19;87.01
64499;SHT31;51087;55.718;21.122;2022-07-29T02:33:30;12.26;86.81
64499;SHT31;51087;55.718;21.122;2022-07-29T02:35:57;12.38;86.14
64499;SHT31;51087;55.718;21.122;2022-07-29T02:38:25;12.36;86.02
64499;SHT31;51087;55.718;21.122;2022-07-29T02:41:12;12.40;85.82
64499;SHT31;51087;55.718;21.122;2022-07-29T02:43:40;12.45;85.67
64499;SHT31;51087;55.718;21.122;2022-07-29T02:46:11;12.44;85.42
64499;SHT31;51087;55.718;21.122;2022-07-29T02:48:41;12.50;85.38
64499;SHT31;51087;55.718;21.122;2022-07-29T02:51:17;12.47;85.41
64499;SHT31;51087;55.718;21.122;2022-07-29T02:53:49;12.43;85.25
64499;SHT31;51087;55.718;21.122;2022-07-29T02:56:23;12.38;85.55
64499;SHT31;51087;55.718;21.122;2022-07-29T02:58:54;12.29;85.59
64499;SHT31;51087;55.718;21.122;2022-07-29T03:01:23;12.20;85.93
64499;SHT31;51087;55.718;21.122;2022-07-29T03:03:51;12.15;86.27
64499;SHT31;51087;55.718;21.122;2022-07-29T03:06:19;12.16;86.23
64499;SHT31;51087;55.718;21.122;2022-07-29T03:08:46;12.25;86.28
64499;SHT31;51087;55.718;21.122;2022-07-29T03:11:12;12.22;86.10
64499;SHT31;51087;55.718;21.122;2022-07-29T03:13:39;12.10;86.39
64499;SHT31;51087;55.718;21.122;2022-07-29T03:16:05;12.15;86.48
64499;SHT31;51087;55.718;21.122;2022-07-29T03:18:31;12.25;86.27
64499;SHT31;51087;55.718;21.122;2022-07-29T03:20:57;12.23;86.20
64499;SHT31;51087;55.718;21.122;2022-07-29T03:23:24;12.26;86.27
64499;SHT31;51087;55.718;21.122;2022-07-29T03:25:51;12.27;86.23
64499;SHT31;51087;55.718;21.122;2022-07-29T03:28:17;12.23;86.35
64499;SHT31;51087;55.718;21.122;2022-07-29T03:30:42;12.29;86.42
64499;SHT31;51087;55.718;21.122;2022-07-29T03:33:08;12.30;86.42
64499;SHT31;51087;55.718;21.122;2022-07-29T03:35:36;12.30;86.54
64499;SHT31;51087;55.718;21.122;2022-07-29T03:38:01;12.26;86.30
64499;SHT31;51087;55.718;21.122;2022-07-29T03:42:59;12.30;86.52
64499;SHT31;51087;55.718;21.122;2022-07-29T03:45:25;12.34;86.46
64499;SHT31;51087;55.718;21.122;2022-07-29T03:47:54;12.41;86.45
64499;SHT31;51087;55.718;21.122;2022-07-29T03:50:22;12.51;86.30
64499;SHT31;51087;55.718;21.122;2022-07-29T03:52:48;12.58;86.17
64499;SHT31;51087;55.718;21.122;2022-07-29T03:55:15;12.68;85.50
64499;SHT31;51087;55.718;21.122;2022-07-29T03:57:41;12.74;85.27
64499;SHT31;51087;55.718;21.122;2022-07-29T04:00:08;12.77;85.08
64499;SHT31;51087;55.718;21.122;2022-07-29T04:02:35;12.88;84.88
64499;SHT31;51087;55.718;21.122;2022-07-29T04:05:01;12.98;84.61
64499;SHT31;51087;55.718;21.122;2022-07-29T04:07:26;13.06;84.56
64499;SHT31;51087;55.718;21.122;2022-07-29T04:09:52;13.06;84.64
64499;SHT31;51087;55.718;21.122;2022-07-29T04:12:17;13.09;84.74
64499;SHT31;51087;55.718;21.122;2022-07-29T04:14:43;13.22;84.43
64499;SHT31;51087;55.718;21.122;2022-07-29T04:17:08;13.23;84.10
64499;SHT31;51087;55.718;21.122;2022-07-29T04:19:34;13.27;83.58
64499;SHT31;51087;55.718;21.122;2022-07-29T04:22:00;13.33;83.98
64499;SHT31;51087;55.718;21.122;2022-07-29T04:24:26;13.36;84.24
64499;SHT31;51087;55.718;21.122;2022-07-29T04:26:52;13.46;84.64
64499;SHT31;51087;55.718;21.122;2022-07-29T04:29:17;13.51;83.48
64499;SHT31;51087;55.718;21.122;2022-07-29T04:31:43;13.61;83.38
64499;SHT31;51087;55.718;21.122;2022-07-29T04:34:09;13.70;82.81
64499;SHT31;51087;55.718;21.122;2022-07-29T04:36:35;13.85;83.21
64499;SHT31;51087;55.718;21.122;2022-07-29T04:39:00;13.86;82.01
64499;SHT31;51087;55.718;21.122;2022-07-29T04:41:27;13.91;81.94
64499;SHT31;51087;55.718;21.122;2022-07-29T04:43:52;13.91;81.86
64499;SHT31;51087;55.718;21.122;2022-07-29T04:46:18;13.92;81.78
64499;SHT31;51087;55.718;21.122;2022-07-29T04:48:45;13.98;81.74
64499;SHT31;51087;55.718;21.122;2022-07-29T04:51:12;13.98;81.37
64499;SHT31;51087;55.718;21.122;2022-07-29T04:53:37;14.00;81.64
64499;SHT31;51087;55.718;21.122;2022-07-29T04:56:03;14.01;81.82
64499;SHT31;51087;55.718;21.122;2022-07-29T04:58:28;14.09;82.14
64499;SHT31;51087;55.718;21.122;2022-07-29T05:00:54;14.21;82.04
64499;SHT31;51087;55.718;21.122;2022-07-29T05:03:19;14.28;81.53
64499;SHT31;51087;55.718;21.122;2022-07-29T05:05:45;14.33;81.44
64499;SHT31;51087;55.718;21.122;2022-07-29T05:08:10;14.40;81.32
64499;SHT31;51087;55.718;21.122;2022-07-29T05:10:36;14.55;80.83
64499;SHT31;51087;55.718;21.122;2022-07-29T05:13:06;14.61;80.48
64499;SHT31;51087;55.718;21.122;2022-07-29T05:15:36;14.74;80.59
64499;SHT31;51087;55.718;21.122;2022-07-29T05:18:02;14.84;80.70
64499;SHT31;51087;55.718;21.122;2022-07-29T05:20:28;14.99;80.60
64499;SHT31;51087;55.718;21.122;2022-07-29T05:22:58;15.14;78.54
64499;SHT31;51087;55.718;21.122;2022-07-29T05:25:25;15.33;78.23
64499;SHT31;51087;55.718;21.122;2022-07-29T05:27:51;15.47;79.37
64499;SHT31;51087;55.718;21.122;2022-07-29T05:30:16;15.59;79.40
64499;SHT31;51087;55.718;21.122;2022-07-29T05:32:42;15.69;79.30
64499;SHT31;51087;55.718;21.122;2022-07-29T05:35:08;15.79;77.39
64499;SHT31;51087;55.718;21.122;2022-07-29T05:37:33;15.86;76.54
64499;SHT31;51087;55.718;21.122;2022-07-29T05:39:59;15.98;75.39
64499;SHT31;51087;55.718;21.122;2022-07-29T05:42:25;16.07;75.62
64499;SHT31;51087;55.718;21.122;2022-07-29T05:44:51;16.08;76.06
64499;SHT31;51087;55.718;21.122;2022-07-29T05:47:16;16.11;74.59
64499;SHT31;51087;55.718;21.122;2022-07-29T05:49:42;16.17;73.96
64499;SHT31;51087;55.718;21.122;2022-07-29T05:52:07;16.19;73.99
64499;SHT31;51087;55.718;21.122;2022-07-29T05:54:34;16.28;75.82
64499;SHT31;51087;55.718;21.122;2022-07-29T05:57:00;16.32;74.08
64499;SHT31;51087;55.718;21.122;2022-07-29T05:59:26;16.48;73.61
64499;SHT31;51087;55.718;21.122;2022-07-29T06:01:51;16.52;73.90
64499;SHT31;51087;55.718;21.122;2022-07-29T06:04:17;16.59;73.68
64499;SHT31;51087;55.718;21.122;2022-07-29T06:06:42;16.53;73.75
64499;SHT31;51087;55.718;21.122;2022-07-29T06:09:08;16.59;71.67
64499;SHT31;51087;55.718;21.122;2022-07-29T06:11:33;16.60;69.02
64499;SHT31;51087;55.718;21.122;2022-07-29T06:13:58;16.67;69.96
64499;SHT31;51087;55.718;21.122;2022-07-29T06:16:24;16.76;71.57
64499;SHT31;51087;55.718;21.122;2022-07-29T06:18:49;16.81;70.71
64499;SHT31;51087;55.718;21.122;2022-07-29T06:21:17;16.91;69.25
64499;SHT31;51087;55.718;21.122;2022-07-29T06:23:44;17.01;69.16
64499;SHT31;51087;55.718;21.122;2022-07-29T06:26:10;17.04;68.74
64499;SHT31;51087;55.718;21.122;2022-07-29T06:28:35;17.04;68.73
64499;SHT31;51087;55.718;21.122;2022-07-29T06:31:01;17.11;68.45
64499;SHT31;51087;55.718;21.122;2022-07-29T06:33:29;17.12;68.49
64499;SHT31;51087;55.718;21.122;2022-07-29T06:35:54;17.22;69.53
64499;SHT31;51087;55.718;21.122;2022-07-29T06:38:20;17.28;70.67
64499;SHT31;51087;55.718;21.122;2022-07-29T06:40:45;17.29;68.56
64499;SHT31;51087;55.718;21.122;2022-07-29T06:43:32;17.36;70.14
64499;SHT31;51087;55.718;21.122;2022-07-29T06:46:00;17.48;69.09
64499;SHT31;51087;55.718;21.122;2022-07-29T06:48:27;17.49;69.70
64499;SHT31;51087;55.718;21.122;2022-07-29T06:50:52;17.59;69.53
64499;SHT31;51087;55.718;21.122;2022-07-29T06:53:18;17.61;68.22
64499;SHT31;51087;55.718;21.122;2022-07-29T06:55:43;17.50;67.82
64499;SHT31;51087;55.718;21.122;2022-07-29T06:58:09;17.53;68.85
64499;SHT31;51087;55.718;21.122;2022-07-29T07:00:35;17.56;69.01
64499;SHT31;51087;55.718;21.122;2022-07-29T07:03:03;17.69;68.98
64499;SHT31;51087;55.718;21.122;2022-07-29T07:05:29;17.77;67.51
64499;SHT31;51087;55.718;21.122;2022-07-29T07:07:54;17.97;66.12
64499;SHT31;51087;55.718;21.122;2022-07-29T07:10:20;18.07;65.09
64499;SHT31;51087;55.718;21.122;2022-07-29T07:12:45;18.14;64.46
64499;SHT31;51087;55.718;21.122;2022-07-29T07:15:10;18.15;64.23
64499;SHT31;51087;55.718;21.122;2022-07-29T07:17:36;18.11;64.17
64499;SHT31;51087;55.718;21.122;2022-07-29T07:20:04;18.20;64.83
64499;SHT31;51087;55.718;21.122;2022-07-29T07:22:30;18.13;63.51
64499;SHT31;51087;55.718;21.122;2022-07-29T07:24:55;18.17;64.07
64499;SHT31;51087;55.718;21.122;2022-07-29T07:27:21;18.24;63.81
64499;SHT31;51087;55.718;21.122;2022-07-29T07:29:46;18.53;63.86
64499;SHT31;51087;55.718;21.122;2022-07-29T07:32:12;18.79;64.96
64499;SHT31;51087;55.718;21.122;2022-07-29T07:34:38;19.08;63.63
64499;SHT31;51087;55.718;21.122;2022-07-29T07:37:04;19.08;62.09
64499;SHT31;51087;55.718;21.122;2022-07-29T07:39:29;19.25;61.84
64499;SHT31;51087;55.718;21.122;2022-07-29T07:41:55;19.23;60.51
64499;SHT31;51087;55.718;21.122;2022-07-29T07:44:20;19.50;61.85
64499;SHT31;51087;55.718;21.122;2022-07-29T07:46:46;19.57;61.46
64499;SHT31;51087;55.718;21.122;2022-07-29T07:49:11;19.50;59.87
64499;SHT31;51087;55.718;21.122;2022-07-29T07:51:37;19.76;61.86
64499;SHT31;51087;55.718;21.122;2022-07-29T07:54:03;19.97;59.59
64499;SHT31;51087;55.718;21.122;2022-07-29T07:56:29;20.18;59.98
64499;SHT31;51087;55.718;21.122;2022-07-29T07:58:54;20.18;59.38
64499;SHT31;51087;55.718;21.122;2022-07-29T08:01:20;20.18;60.17
64499;SHT31;51087;55.718;21.122;2022-07-29T08:03:48;20.21;58.53
64499;SHT31;51087;55.718;21.122;2022-07-29T08:06:14;20.21;57.85
64499;SHT31;51087;55.718;21.122;2022-07-29T08:08:39;20.26;58.00
64499;SHT31;51087;55.718;21.122;2022-07-29T08:11:05;20.44;59.22
64499;SHT31;51087;55.718;21.122;2022-07-29T08:13:31;20.59;57.60
64499;SHT31;51087;55.718;21.122;2022-07-29T08:15:57;20.48;56.52
64499;SHT31;51087;55.718;21.122;2022-07-29T08:18:28;20.58;57.15
64499;SHT31;51087;55.718;21.122;2022-07-29T08:20:54;20.47;56.12
64499;SHT31;51087;55.718;21.122;2022-07-29T08:23:20;20.65;57.06
64499;SHT31;51087;55.718;21.122;2022-07-29T08:25:46;20.92;56.73
64499;SHT31;51087;55.718;21.122;2022-07-29T08:28:11;20.83;54.29
64499;SHT31;51087;55.718;21.122;2022-07-29T08:30:37;21.03;57.43
64499;SHT31;51087;55.718;21.122;2022-07-29T08:33:03;20.85;53.88
64499;SHT31;51087;55.718;21.122;2022-07-29T08:35:28;20.72;54.92
64499;SHT31;51087;55.718;21.122;2022-07-29T08:37:54;21.12;57.04
64499;SHT31;51087;55.718;21.122;2022-07-29T08:40:20;21.09;53.44
64499;SHT31;51087;55.718;21.122;2022-07-29T08:42:46;20.98;54.24
64499;SHT31;51087;55.718;21.122;2022-07-29T08:45:11;20.64;53.89
64499;SHT31;51087;55.718;21.122;2022-07-29T08:47:38;20.12;54.88
64499;SHT31;51087;55.718;21.122;2022-07-29T08:50:08;19.99;56.79
64499;SHT31;51087;55.718;21.122;2022-07-29T08:52:39;19.97;56.11
64499;SHT31;51087;55.718;21.122;2022-07-29T08:55:06;19.97;55.61
64499;SHT31;51087;55.718;21.122;2022-07-29T08:57:33;19.93;56.10
64499;SHT31;51087;55.718;21.122;2022-07-29T09:00:00;19.93;55.41
64499;SHT31;51087;55.718;21.122;2022-07-29T09:02:29;19.82;60.09
64499;SHT31;51087;55.718;21.122;2022-07-29T09:04:57;19.68;60.67
64499;SHT31;51087;55.718;21.122;2022-07-29T09:07:25;19.79;60.09
64499;SHT31;51087;55.718;21.122;2022-07-29T09:09:51;20.03;60.56
64499;SHT31;51087;55.718;21.122;2022-07-29T09:12:16;20.30;59.27
64499;SHT31;51087;55.718;21.122;2022-07-29T09:14:43;20.21;59.37
64499;SHT31;51087;55.718;21.122;2022-07-29T09:17:08;20.18;58.60
64499;SHT31;51087;55.718;21.122;2022-07-29T09:19:35;20.00;59.36
64499;SHT31;51087;55.718;21.122;2022-07-29T09:22:04;19.68;59.76
64499;SHT31;51087;55.718;21.122;2022-07-29T09:27:00;19.68;59.70
64499;SHT31;51087;55.718;21.122;2022-07-29T09:29:26;19.81;58.86
64499;SHT31;51087;55.718;21.122;2022-07-29T09:31:54;19.85;58.81
64499;SHT31;51087;55.718;21.122;2022-07-29T09:34:23;19.94;59.57
64499;SHT31;51087;55.718;21.122;2022-07-29T09:36:51;20.00;58.31
64499;SHT31;51087;55.718;21.122;2022-07-29T09:39:44;19.96;58.55
64499;SHT31;51087;55.718;21.122;2022-07-29T09:42:11;19.86;59.06
64499;SHT31;51087;55.718;21.122;2022-07-29T09:44:48;19.66;58.43
64499;SHT31;51087;55.718;21.122;2022-07-29T09:47:15;19.71;58.95
64499;SHT31;51087;55.718;21.122;2022-07-29T09:52:15;19.76;59.19
64499;SHT31;51087;55.718;21.122;2022-07-29T09:54:40;19.86;59.14
64499;SHT31;51087;55.718;21.122;2022-07-29T09:57:08;19.81;58.01
64499;SHT31;51087;55.718;21.122;2022-07-29T09:59:38;19.73;59.66
64499;SHT31;51087;55.718;21.122;2022-07-29T10:02:14;19.96;59.32
64499;SHT31;51087;55.718;21.122;2022-07-29T10:04:41;20.14;58.96
64499;SHT31;51087;55.718;21.122;2022-07-29T10:07:07;20.23;57.84
64499;SHT31;51087;55.718;21.122;2022-07-29T10:09:33;20.31;58.94
64499;SHT31;51087;55.718;21.122;2022-07-29T10:12:25;20.47;58.11
64499;SHT31;51087;55.718;21.122;2022-07-29T10:14:51;21.02;57.00
64499;SHT31;51087;55.718;21.122;2022-07-29T10:17:17;20.92;56.77
64499;SHT31;51087;55.718;21.122;2022-07-29T10:19:44;21.40;55.99
64499;SHT31;51087;55.718;21.122;2022-07-29T10:22:10;21.67;55.36
64499;SHT31;51087;55.718;21.122;2022-07-29T10:24:37;21.74;54.69
64499;SHT31;51087;55.718;21.122;2022-07-29T10:27:06;22.29;53.58
64499;SHT31;51087;55.718;21.122;2022-07-29T10:29:32;21.24;54.16
64499;SHT31;51087;55.718;21.122;2022-07-29T10:34:49;20.88;56.49
64499;SHT31;51087;55.718;21.122;2022-07-29T10:37:40;20.54;57.91
64499;SHT31;51087;55.718;21.122;2022-07-29T10:40:51;21.09;56.59
64499;SHT31;51087;55.718;21.122;2022-07-29T10:43:43;21.50;54.79
64499;SHT31;51087;55.718;21.122;2022-07-29T10:46:10;22.44;54.04
64499;SHT31;51087;55.718;21.122;2022-07-29T10:52:05;23.46;51.12
64499;SHT31;51087;55.718;21.122;2022-07-29T10:54:39;23.61;50.49
64499;SHT31;51087;55.718;21.122;2022-07-29T10:57:30;24.09;49.46
64499;SHT31;51087;55.718;21.122;2022-07-29T11:05:17;23.71;50.52
64499;SHT31;51087;55.718;21.122;2022-07-29T11:10:37;24.52;47.50
64499;SHT31;51087;55.718;21.122;2022-07-29T11:13:03;23.14;49.43
64499;SHT31;51087;55.718;21.122;2022-07-29T11:15:29;23.04;51.58
64499;SHT31;51087;55.718;21.122;2022-07-29T11:18:08;23.11;52.00
64499;SHT31;51087;55.718;21.122;2022-07-29T11:23:23;24.00;49.26
64499;SHT31;51087;55.718;21.122;2022-07-29T11:33:56;25.56;45.89
64499;SHT31;51087;55.718;21.122;2022-07-29T11:36:21;25.38;46.48
64499;SHT31;51087;55.718;21.122;2022-07-29T11:38:47;24.76;46.56
64499;SHT31;51087;55.718;21.122;2022-07-29T11:41:26;25.38;46.93
64499;SHT31;51087;55.718;21.122;2022-07-29T11:43:56;26.32;44.42
64499;SHT31;51087;55.718;21.122;2022-07-29T11:46:45;27.22;42.84
64499;SHT31;51087;55.718;21.122;2022-07-29T11:49:25;27.85;41.79
64499;SHT31;51087;55.718;21.122;2022-07-29T11:51:57;27.65;41.16
64499;SHT31;51087;55.718;21.122;2022-07-29T11:54:35;27.63;41.44
64499;SHT31;51087;55.718;21.122;2022-07-29T11:57:02;27.81;41.41
64499;SHT31;51087;55.718;21.122;2022-07-29T11:59:28;27.98;41.57
64499;SHT31;51087;55.718;21.122;2022-07-29T12:01:57;27.50;41.87
64499;SHT31;51087;55.718;21.122;2022-07-29T12:04:23;26.34;43.66
64499;SHT31;51087;55.718;21.122;2022-07-29T12:06:50;26.37;44.00
64499;SHT31;51087;55.718;21.122;2022-07-29T12:09:17;26.05;44.52
64499;SHT31;51087;55.718;21.122;2022-07-29T12:11:43;25.89;44.78
64499;SHT31;51087;55.718;21.122;2022-07-29T12:14:08;25.59;45.55
64499;SHT31;51087;55.718;21.122;2022-07-29T12:16:36;24.48;46.85
64499;SHT31;51087;55.718;21.122;2022-07-29T12:19:03;24.02;47.67
64499;SHT31;51087;55.718;21.122;2022-07-29T12:21:49;24.70;48.16
64499;SHT31;51087;55.718;21.122;2022-07-29T12:24:15;24.26;47.76
64499;SHT31;51087;55.718;21.122;2022-07-29T12:26:50;25.03;47.16
64499;SHT31;51087;55.718;21.122;2022-07-29T12:29:17;24.66;47.66
64499;SHT31;51087;55.718;21.122;2022-07-29T12:31:43;24.56;47.83
64499;SHT31;51087;55.718;21.122;2022-07-29T12:34:13;25.50;46.84
64499;SHT31;51087;55.718;21.122;2022-07-29T12:36:43;25.52;47.22
64499;SHT31;51087;55.718;21.122;2022-07-29T12:39:10;25.27;47.44
64499;SHT31;51087;55.718;21.122;2022-07-29T12:41:37;26.16;46.17
64499;SHT31;51087;55.718;21.122;2022-07-29T12:44:02;25.77;45.95
64499;SHT31;51087;55.718;21.122;2022-07-29T12:46:28;26.53;45.39
64499;SHT31;51087;55.718;21.122;2022-07-29T12:48:54;26.52;44.87
64499;SHT31;51087;55.718;21.122;2022-07-29T12:51:37;25.92;45.42
64499;SHT31;51087;55.718;21.122;2022-07-29T12:54:08;25.35;45.79
64499;SHT31;51087;55.718;21.122;2022-07-29T12:56:36;25.18;46.34
64499;SHT31;51087;55.718;21.122;2022-07-29T12:59:31;24.95;46.64
64499;SHT31;51087;55.718;21.122;2022-07-29T13:01:56;25.01;46.84
64499;SHT31;51087;55.718;21.122;2022-07-29T13:04:32;25.29;46.75
64499;SHT31;51087;55.718;21.122;2022-07-29T13:07:06;25.11;47.27
64499;SHT31;51087;55.718;21.122;2022-07-29T13:09:43;25.17;47.42
64499;SHT31;51087;55.718;21.122;2022-07-29T13:12:12;25.01;47.29
64499;SHT31;51087;55.718;21.122;2022-07-29T13:14:40;24.57;48.29
64499;SHT31;51087;55.718;21.122;2022-07-29T13:17:15;24.76;47.59
64499;SHT31;51087;55.718;21.122;2022-07-29T13:19:44;24.51;48.11
64499;SHT31;51087;55.718;21.122;2022-07-29T13:22:14;24.91;46.85
64499;SHT31;51087;55.718;21.122;2022-07-29T13:24:54;24.64;47.28
64499;SHT31;51087;55.718;21.122;2022-07-29T13:27:22;24.74;47.67
64499;SHT31;51087;55.718;21.122;2022-07-29T13:29:48;24.69;47.31
64499;SHT31;51087;55.718;21.122;2022-07-29T13:32:16;24.95;47.26
64499;SHT31;51087;55.718;21.122;2022-07-29T13:34:42;24.93;47.50
64499;SHT31;51087;55.718;21.122;2022-07-29T13:37:08;24.11;49.37
64499;SHT31;51087;55.718;21.122;2022-07-29T13:39:34;24.46;48.53
64499;SHT31;51087;55.718;21.122;2022-07-29T13:41:59;24.87;48.43
64499;SHT31;51087;55.718;21.122;2022-07-29T13:44:26;25.83;47.18
64499;SHT31;51087;55.718;21.122;2022-07-29T13:46:51;26.63;47.14
64499;SHT31;51087;55.718;21.122;2022-07-29T13:49:17;27.07;43.91
64499;SHT31;51087;55.718;21.122;2022-07-29T13:51:42;26.49;44.58
64499;SHT31;51087;55.718;21.122;2022-07-29T13:54:08;26.03;45.34
64499;SHT31;51087;55.718;21.122;2022-07-29T13:56:33;25.94;46.15
64499;SHT31;51087;55.718;21.122;2022-07-29T13:58:59;25.49;46.76
64499;SHT31;51087;55.718;21.122;2022-07-29T14:01:25;25.75;46.00
64499;SHT31;51087;55.718;21.122;2022-07-29T14:03:51;25.35;45.89
64499;SHT31;51087;55.718;21.122;2022-07-29T14:06:16;25.75;45.44
64499;SHT31;51087;55.718;21.122;2022-07-29T14:08:42;25.15;46.88
64499;SHT31;51087;55.718;21.122;2022-07-29T14:11:08;25.03;46.56
64499;SHT31;51087;55.718;21.122;2022-07-29T14:13:33;25.34;47.35
64499;SHT31;51087;55.718;21.122;2022-07-29T14:15:59;25.46;45.26
64499;SHT31;51087;55.718;21.122;2022-07-29T14:18:24;25.12;45.59
64499;SHT31;51087;55.718;21.122;2022-07-29T14:20:50;25.50;44.85
64499;SHT31;51087;55.718;21.122;2022-07-29T14:23:16;25.00;44.73
64499;SHT31;51087;55.718;21.122;2022-07-29T14:25:42;24.35;45.86
64499;SHT31;51087;55.718;21.122;2022-07-29T14:28:08;24.12;46.72
64499;SHT31;51087;55.718;21.122;2022-07-29T14:30:33;23.78;46.49
64499;SHT31;51087;55.718;21.122;2022-07-29T14:32:59;23.54;47.60
64499;SHT31;51087;55.718;21.122;2022-07-29T14:35:24;23.54;48.11
64499;SHT31;51087;55.718;21.122;2022-07-29T14:37:50;23.45;48.38
64499;SHT31;51087;55.718;21.122;2022-07-29T14:40:15;23.53;48.01
64499;SHT31;51087;55.718;21.122;2022-07-29T14:42:41;24.25;46.40
64499;SHT31;51087;55.718;21.122;2022-07-29T14:45:08;24.52;45.53
64499;SHT31;51087;55.718;21.122;2022-07-29T14:47:33;24.81;42.15
64499;SHT31;51087;55.718;21.122;2022-07-29T14:49:59;25.41;42.26
64499;SHT31;51087;55.718;21.122;2022-07-29T14:52:25;25.56;42.56
64499;SHT31;51087;55.718;21.122;2022-07-29T14:54:54;25.22;43.29
64499;SHT31;51087;55.718;21.122;2022-07-29T14:57:19;25.27;43.11
64499;SHT31;51087;55.718;21.122;2022-07-29T14:59:45;26.22;41.54
64499;SHT31;51087;55.718;21.122;2022-07-29T15:02:10;25.96;40.94
64499;SHT31;51087;55.718;21.122;2022-07-29T15:04:36;25.97;38.89
64499;SHT31;51087;55.718;21.122;2022-07-29T15:07:01;25.92;39.76
64499;SHT31;51087;55.718;21.122;2022-07-29T15:09:27;25.96;40.87
64499;SHT31;51087;55.718;21.122;2022-07-29T15:11:52;26.44;41.04
64499;SHT31;51087;55.718;21.122;2022-07-29T15:14:18;25.79;42.31
64499;SHT31;51087;55.718;21.122;2022-07-29T15:16:43;25.84;41.58
64499;SHT31;51087;55.718;21.122;2022-07-29T15:19:09;25.93;42.52
64499;SHT31;51087;55.718;21.122;2022-07-29T15:21:35;25.76;43.36
64499;SHT31;51087;55.718;21.122;2022-07-29T15:24:00;26.55;41.31
64499;SHT31;51087;55.718;21.122;2022-07-29T15:26:26;27.63;40.01
64499;SHT31;51087;55.718;21.122;2022-07-29T15:28:51;28.06;38.63
64499;SHT31;51087;55.718;21.122;2022-07-29T15:31:17;27.61;38.90
64499;SHT31;51087;55.718;21.122;2022-07-29T15:33:44;28.24;37.96
64499;SHT31;51087;55.718;21.122;2022-07-29T15:36:10;28.48;38.03
64499;SHT31;51087;55.718;21.122;2022-07-29T15:38:37;28.51;37.03
64499;SHT31;51087;55.718;21.122;2022-07-29T15:41:04;28.96;37.22
64499;SHT31;51087;55.718;21.122;2022-07-29T15:43:30;29.46;36.43
64499;SHT31;51087;55.718;21.122;2022-07-29T15:45:55;31.35;33.32
64499;SHT31;51087;55.718;21.122;2022-07-29T15:48:39;31.79;33.12
64499;SHT31;51087;55.718;21.122;2022-07-29T15:51:05;32.82;32.00
64499;SHT31;51087;55.718;21.122;2022-07-29T15:53:30;32.23;31.74
64499;SHT31;51087;55.718;21.122;2022-07-29T15:55:56;33.20;30.03
64499;SHT31;51087;55.718;21.122;2022-07-29T15:58:21;32.90;30.11
64499;SHT31;51087;55.718;21.122;2022-07-29T16:00:47;32.38;30.80
64499;SHT31;51087;55.718;21.122;2022-07-29T16:03:13;31.73;31.92
64499;SHT31;51087;55.718;21.122;2022-07-29T16:05:38;30.96;32.92